createdAt,value
2018-07-05T00:00:49.644Z,3.40
2018-07-05T00:02:04.255Z,3.20
2018-07-05T00:03:19.029Z,3.20
2018-07-05T00:04:33.850Z,2.60
2018-07-05T00:05:48.659Z,4.00
2018-07-05T00:07:03.720Z,3.10
2018-07-05T00:08:18.364Z,3.27
2018-07-05T00:09:33.195Z,3.40
2018-07-05T00:10:47.836Z,3.07
2018-07-05T00:12:02.620Z,3.23
2018-07-05T00:13:17.430Z,2.97
2018-07-05T00:14:32.221Z,3.10
2018-07-05T00:15:47.045Z,2.53
2018-07-05T00:17:01.700Z,2.77
2018-07-05T00:18:16.544Z,4.17
2018-07-05T00:19:31.380Z,3.67
2018-07-05T00:20:46.122Z,3.10
2018-07-05T00:22:00.824Z,3.50
2018-07-05T00:23:15.598Z,3.00
2018-07-05T00:24:30.311Z,3.57
2018-07-05T00:25:45.046Z,3.50
2018-07-05T00:26:59.705Z,3.60
2018-07-05T00:28:14.471Z,3.17
2018-07-05T00:29:29.292Z,2.80
2018-07-05T00:30:44.090Z,2.70
2018-07-05T00:31:58.715Z,3.17
2018-07-05T00:33:13.516Z,3.00
2018-07-05T00:34:28.156Z,3.33
2018-07-05T00:35:42.883Z,2.77
2018-07-05T00:36:57.460Z,2.90
2018-07-05T00:38:12.233Z,3.63
2018-07-05T00:39:20.944Z,3.50
2018-07-05T00:40:35.842Z,2.80
2018-07-05T00:41:50.584Z,3.47
2018-07-05T00:43:05.390Z,3.57
2018-07-05T00:44:19.967Z,2.90
2018-07-05T00:45:34.577Z,2.57
2018-07-05T00:46:49.458Z,2.67
2018-07-05T00:48:04.035Z,2.97
2018-07-05T00:49:18.812Z,3.10
2018-07-05T00:50:33.480Z,2.80
2018-07-05T00:51:48.211Z,2.73
2018-07-05T00:53:03.122Z,2.70
2018-07-05T00:54:17.791Z,3.10
2018-07-05T00:55:32.505Z,3.00
2018-07-05T00:56:47.209Z,2.67
2018-07-05T00:58:01.969Z,3.10
2018-07-05T00:59:16.727Z,2.67
2018-07-05T01:00:31.481Z,3.23
2018-07-05T01:01:46.135Z,2.90
2018-07-05T01:03:00.859Z,3.10
2018-07-05T01:04:15.636Z,2.57
2018-07-05T01:05:30.492Z,3.43
2018-07-05T01:06:45.065Z,3.40
2018-07-05T01:07:59.836Z,2.70
2018-07-05T01:09:14.594Z,3.57
2018-07-05T01:10:29.384Z,3.30
2018-07-05T01:11:44.260Z,4.60
2018-07-05T01:12:58.992Z,3.20
2018-07-05T01:14:13.636Z,3.53
2018-07-05T01:15:28.197Z,3.23
2018-07-05T01:16:42.980Z,2.87
2018-07-05T01:17:57.544Z,3.00
2018-07-05T01:19:12.285Z,2.80
2018-07-05T01:20:27.732Z,3.90
2018-07-05T01:21:42.583Z,3.60
2018-07-05T01:22:57.281Z,3.77
2018-07-05T01:24:12.089Z,3.60
2018-07-05T01:25:26.819Z,3.40
2018-07-05T01:26:41.614Z,3.60
2018-07-05T01:27:56.204Z,3.60
2018-07-05T01:29:10.960Z,3.77
2018-07-05T01:30:25.750Z,3.07
2018-07-05T01:31:40.452Z,3.70
2018-07-05T01:32:55.226Z,3.30
2018-07-05T01:34:09.809Z,3.30
2018-07-05T01:35:24.332Z,4.47
2018-07-05T01:36:39.179Z,3.47
2018-07-05T01:37:53.972Z,3.67
2018-07-05T01:39:08.796Z,3.10
2018-07-05T01:40:23.612Z,3.40
2018-07-05T01:41:38.423Z,3.27
2018-07-05T01:42:53.288Z,4.03
2018-07-05T01:44:08.034Z,3.40
2018-07-05T01:45:22.508Z,3.50
2018-07-05T01:46:31.176Z,3.83
2018-07-05T01:47:46.101Z,3.67
2018-07-05T01:49:00.908Z,3.57
2018-07-05T01:50:15.522Z,3.80
2018-07-05T01:51:30.314Z,2.43
2018-07-05T01:52:44.914Z,3.77
2018-07-05T01:53:59.700Z,4.00
2018-07-05T01:55:14.411Z,4.13
2018-07-05T01:56:29.136Z,3.40
2018-07-05T01:57:43.946Z,3.83
2018-07-05T01:58:58.520Z,3.87
2018-07-05T02:00:13.298Z,4.40
2018-07-05T02:01:27.896Z,4.50
2018-07-05T02:02:42.581Z,3.87
2018-07-05T02:03:57.366Z,3.20
2018-07-05T02:05:12.256Z,4.20
2018-07-05T02:06:27.013Z,4.37
2018-07-05T02:07:41.632Z,4.10
2018-07-05T02:08:56.421Z,4.00
2018-07-05T02:10:11.125Z,3.40
2018-07-05T02:11:25.890Z,4.53
2018-07-05T02:12:40.523Z,3.93
2018-07-05T02:13:55.281Z,4.50
2018-07-05T02:15:09.973Z,3.27
2018-07-05T02:16:24.796Z,3.50
2018-07-05T02:17:39.404Z,3.23
2018-07-05T02:18:54.096Z,3.67
2018-07-05T02:20:08.869Z,3.80
2018-07-05T02:21:23.570Z,3.90
2018-07-05T02:22:38.212Z,3.73
2018-07-05T02:23:52.816Z,4.00
2018-07-05T02:25:07.624Z,3.90
2018-07-05T02:26:22.400Z,3.47
2018-07-05T02:27:37.121Z,4.30
2018-07-05T02:28:45.741Z,3.60
2018-07-05T02:30:00.395Z,3.77
2018-07-05T02:31:14.910Z,4.00
2018-07-05T02:32:29.616Z,3.57
2018-07-05T02:33:45.532Z,3.83
2018-07-05T02:35:00.246Z,3.60
2018-07-05T02:36:15.073Z,5.17
2018-07-05T02:37:35.237Z,3.47
2018-07-05T02:38:55.356Z,4.20
2018-07-05T02:40:09.885Z,3.33
2018-07-05T02:41:24.611Z,4.63
2018-07-05T02:42:39.121Z,4.20
2018-07-05T02:43:53.763Z,4.60
2018-07-05T02:45:08.376Z,4.40
2018-07-05T02:46:22.966Z,4.45
2018-07-05T02:47:37.652Z,6.40
2018-07-05T02:48:52.282Z,4.40
2018-07-05T02:50:07.102Z,5.07
2018-07-05T02:51:21.850Z,4.43
2018-07-05T02:52:36.673Z,4.17
2018-07-05T02:53:51.254Z,3.37
2018-07-05T02:55:05.993Z,4.50
2018-07-05T02:56:20.794Z,4.90
2018-07-05T02:57:35.524Z,4.00
2018-07-05T02:58:50.648Z,3.80
2018-07-05T03:00:05.223Z,4.47
2018-07-05T03:01:19.846Z,3.83
2018-07-05T03:02:34.432Z,5.55
2018-07-05T03:03:49.272Z,3.70
2018-07-05T03:05:04.012Z,3.75
2018-07-05T03:06:18.898Z,4.23
2018-07-05T03:07:33.520Z,4.37
2018-07-05T03:08:48.246Z,3.37
2018-07-05T03:10:03.067Z,3.70
2018-07-05T03:11:17.768Z,3.83
2018-07-05T03:12:32.507Z,4.03
2018-07-05T03:13:47.166Z,4.20
2018-07-05T03:15:01.847Z,3.70
2018-07-05T03:16:16.646Z,3.50
2018-07-05T03:17:31.379Z,4.43
2018-07-05T03:18:45.989Z,4.90
2018-07-05T03:20:00.756Z,3.63
2018-07-05T03:21:15.342Z,3.67
2018-07-05T03:22:30.029Z,3.60
2018-07-05T03:23:44.720Z,4.03
2018-07-05T03:24:59.254Z,2.97
2018-07-05T03:26:14.012Z,4.03
2018-07-05T03:27:28.672Z,3.93
2018-07-05T03:28:43.360Z,4.27
2018-07-05T03:29:58.045Z,4.20
2018-07-05T03:31:12.620Z,4.13
2018-07-05T03:32:27.240Z,3.87
2018-07-05T03:33:42.512Z,4.53
2018-07-05T03:34:57.449Z,4.10
2018-07-05T03:36:12.417Z,4.57
2018-07-05T03:37:27.060Z,4.40
2018-07-05T03:38:42.007Z,3.80
2018-07-05T03:39:56.631Z,4.50
2018-07-05T03:41:11.314Z,3.37
2018-07-05T03:42:26.080Z,3.70
2018-07-05T03:43:40.882Z,3.40
2018-07-05T03:44:55.589Z,4.07
2018-07-05T03:46:10.254Z,3.55
2018-07-05T03:47:24.871Z,3.92
2018-07-05T03:48:39.653Z,4.15
2018-07-05T03:49:54.269Z,4.00
2018-07-05T03:51:02.906Z,3.37
2018-07-05T03:52:17.549Z,4.67
2018-07-05T03:53:32.332Z,4.20
2018-07-05T03:54:46.925Z,4.03
2018-07-05T03:56:01.623Z,3.47
2018-07-05T03:57:16.464Z,3.73
2018-07-05T03:58:31.072Z,4.13
2018-07-05T03:59:45.779Z,4.20
2018-07-05T04:01:00.499Z,4.23
2018-07-05T04:02:15.182Z,4.23
2018-07-05T04:03:29.880Z,4.70
2018-07-05T04:04:44.654Z,3.77
2018-07-05T04:05:59.432Z,4.67
2018-07-05T04:07:14.141Z,3.40
2018-07-05T04:08:28.933Z,4.27
2018-07-05T04:09:44.393Z,3.67
2018-07-05T04:10:59.116Z,3.90
2018-07-05T04:12:13.781Z,4.10
2018-07-05T04:13:28.316Z,3.90
2018-07-05T04:14:42.835Z,3.60
2018-07-05T04:15:57.529Z,3.73
2018-07-05T04:17:12.265Z,4.30
2018-07-05T04:18:27.069Z,4.00
2018-07-05T04:19:48.752Z,3.57
2018-07-05T04:21:03.510Z,3.87
2018-07-05T04:22:18.236Z,4.40
2018-07-05T04:23:32.768Z,5.00
2018-07-05T04:24:47.328Z,4.40
2018-07-05T04:26:02.045Z,4.73
2018-07-05T04:27:16.909Z,3.77
2018-07-05T04:28:31.703Z,3.83
2018-07-05T04:29:46.580Z,4.83
2018-07-05T04:31:01.351Z,4.97
2018-07-05T04:32:16.105Z,3.95
2018-07-05T04:33:30.885Z,4.43
2018-07-05T04:34:45.698Z,3.90
2018-07-05T04:36:00.373Z,3.75
2018-07-05T04:37:15.184Z,3.80
2018-07-05T04:38:30.081Z,4.90
2018-07-05T04:39:44.862Z,4.50
2018-07-05T04:40:59.893Z,4.20
2018-07-05T04:42:14.746Z,3.80
2018-07-05T04:43:29.573Z,4.40
2018-07-05T04:44:44.316Z,3.80
2018-07-05T04:45:59.037Z,4.60
2018-07-05T04:47:14.220Z,3.57
2018-07-05T04:48:29.061Z,3.57
2018-07-05T04:49:43.658Z,4.63
2018-07-05T04:50:58.471Z,4.33
2018-07-05T04:52:13.007Z,4.00
2018-07-05T04:53:27.759Z,3.77
2018-07-05T04:54:42.373Z,3.90
2018-07-05T04:55:57.091Z,3.92
2018-07-05T04:57:11.823Z,4.40
2018-07-05T04:58:26.669Z,3.70
2018-07-05T04:59:41.260Z,3.70
2018-07-05T05:00:56.038Z,3.60
2018-07-05T05:02:10.843Z,3.93
2018-07-05T05:03:25.465Z,3.57
2018-07-05T05:04:39.920Z,4.42
2018-07-05T05:05:54.800Z,3.80
2018-07-05T05:07:09.540Z,3.27
2018-07-05T05:08:24.259Z,4.60
2018-07-05T05:09:39.015Z,4.57
2018-07-05T05:10:53.586Z,3.90
2018-07-05T05:12:08.225Z,3.70
2018-07-05T05:13:22.988Z,3.55
2018-07-05T05:14:37.685Z,4.50
2018-07-05T05:15:52.487Z,4.23
2018-07-05T05:17:07.242Z,4.77
2018-07-05T05:18:21.901Z,3.30
2018-07-05T05:19:36.693Z,3.40
2018-07-05T05:20:51.432Z,3.58
2018-07-05T05:22:05.957Z,3.50
2018-07-05T05:23:20.809Z,3.90
2018-07-05T05:24:35.666Z,3.87
2018-07-05T05:25:50.336Z,3.17
2018-07-05T05:27:05.211Z,3.87
2018-07-05T05:28:19.834Z,4.65
2018-07-05T05:29:34.636Z,3.90
2018-07-05T05:30:49.248Z,4.30
2018-07-05T05:32:03.916Z,3.35
2018-07-05T05:33:18.740Z,3.63
2018-07-05T05:34:33.568Z,3.45
2018-07-05T05:35:48.354Z,3.77
2018-07-05T05:37:02.949Z,3.90
2018-07-05T05:38:17.655Z,3.20
2018-07-05T05:39:32.338Z,3.65
2018-07-05T05:40:47.032Z,3.13
2018-07-05T05:42:01.724Z,3.55
2018-07-05T05:43:16.473Z,3.77
2018-07-05T05:44:31.284Z,3.40
2018-07-05T05:45:45.973Z,3.25
2018-07-05T05:47:00.898Z,3.80
2018-07-05T05:48:15.717Z,3.07
2018-07-05T05:49:30.390Z,3.22
2018-07-05T05:50:45.215Z,3.60
2018-07-05T05:51:59.925Z,3.20
2018-07-05T05:53:14.775Z,3.50
2018-07-05T05:54:29.312Z,3.17
2018-07-05T05:55:44.174Z,3.07
2018-07-05T05:56:58.661Z,3.10
2018-07-05T05:58:13.532Z,3.37
2018-07-05T05:59:28.249Z,2.83
2018-07-05T06:00:43.000Z,2.90
2018-07-05T06:01:57.707Z,3.10
2018-07-05T06:03:12.262Z,3.53
2018-07-05T06:04:27.098Z,2.90
2018-07-05T06:05:41.788Z,3.30
2018-07-05T06:06:56.516Z,2.93
2018-07-05T06:08:11.112Z,3.23
2018-07-05T06:09:25.829Z,3.20
2018-07-05T06:10:40.652Z,3.67
2018-07-05T06:11:55.361Z,2.87
2018-07-05T06:13:09.992Z,3.00
2018-07-05T06:14:24.689Z,3.83
2018-07-05T06:15:33.444Z,3.77
2018-07-05T06:16:48.126Z,3.50
2018-07-05T06:18:02.896Z,3.87
2018-07-05T06:19:17.601Z,2.97
2018-07-05T06:20:32.270Z,3.55
2018-07-05T06:21:46.949Z,3.53
2018-07-05T06:23:01.638Z,3.72
2018-07-05T06:24:16.394Z,3.07
2018-07-05T06:25:31.194Z,3.13
2018-07-05T06:26:45.676Z,3.50
2018-07-05T06:28:00.267Z,3.50
2018-07-05T06:29:15.079Z,3.57
2018-07-05T06:30:29.801Z,3.45
2018-07-05T06:31:44.564Z,3.27
2018-07-05T06:32:53.288Z,4.10
2018-07-05T06:34:08.013Z,3.20
2018-07-05T06:35:22.772Z,3.10
2018-07-05T06:36:37.385Z,3.70
2018-07-05T06:37:52.015Z,3.33
2018-07-05T06:39:07.608Z,3.90
2018-07-05T06:40:22.170Z,3.90
2018-07-05T06:41:36.868Z,3.43
2018-07-05T06:42:51.558Z,2.73
2018-07-05T06:44:06.395Z,3.17
2018-07-05T06:45:21.035Z,3.20
2018-07-05T06:46:35.854Z,3.73
2018-07-05T06:47:50.574Z,4.17
2018-07-05T06:49:05.281Z,3.47
2018-07-05T06:50:19.877Z,3.65
2018-07-05T06:51:34.685Z,4.00
2018-07-05T06:52:49.279Z,3.50
2018-07-05T06:54:04.049Z,3.40
2018-07-05T06:55:18.813Z,4.87
2018-07-05T06:56:33.621Z,4.60
2018-07-05T06:57:48.452Z,4.13
2018-07-05T06:59:03.102Z,3.93
2018-07-05T07:00:17.885Z,4.07
2018-07-05T07:01:32.653Z,4.77
2018-07-05T07:02:47.441Z,4.87
2018-07-05T07:04:02.117Z,3.90
2018-07-05T07:05:16.768Z,4.37
2018-07-05T07:06:31.428Z,4.75
2018-07-05T07:07:46.290Z,4.27
2018-07-05T07:09:00.972Z,4.43
2018-07-05T07:10:15.739Z,4.20
2018-07-05T07:11:30.376Z,4.47
2018-07-05T07:12:45.039Z,4.50
2018-07-05T07:13:59.770Z,4.87
2018-07-05T07:15:15.017Z,4.73
2018-07-05T07:16:29.881Z,4.70
2018-07-05T07:17:44.700Z,4.23
2018-07-05T07:18:59.566Z,4.30
2018-07-05T07:20:14.061Z,4.97
2018-07-05T07:21:28.729Z,4.87
2018-07-05T07:22:43.407Z,4.47
2018-07-05T07:23:58.271Z,4.10
2018-07-05T07:25:13.033Z,3.67
2018-07-05T07:26:27.768Z,4.62
2018-07-05T07:27:42.504Z,4.83
2018-07-05T07:28:57.369Z,4.27
2018-07-05T07:30:11.991Z,4.23
2018-07-05T07:31:27.053Z,4.57
2018-07-05T07:32:41.651Z,4.50
2018-07-05T07:33:56.236Z,4.62
2018-07-05T07:35:11.147Z,4.67
2018-07-05T07:36:25.671Z,5.80
2018-07-05T07:37:40.277Z,5.00
2018-07-05T07:38:54.893Z,4.10
2018-07-05T07:40:09.612Z,4.87
2018-07-05T07:41:24.396Z,4.10
2018-07-05T07:42:26.676Z,6.30
2018-07-05T07:43:28.976Z,5.40
2018-07-05T07:44:31.240Z,4.80
2018-07-05T07:45:33.595Z,5.60
2018-07-05T07:46:35.777Z,5.23
2018-07-05T07:47:38.135Z,6.00
2018-07-05T07:48:40.365Z,5.10
2018-07-05T07:49:42.613Z,4.47
2018-07-05T07:50:45.022Z,5.87
2018-07-05T07:51:47.701Z,5.23
2018-07-05T07:52:49.960Z,5.90
2018-07-05T07:53:52.888Z,5.20
2018-07-05T07:54:55.134Z,6.53
2018-07-05T07:55:57.368Z,5.20
2018-07-05T07:56:59.618Z,5.90
2018-07-05T07:58:01.877Z,5.20
2018-07-05T07:59:04.132Z,6.40
2018-07-05T08:00:06.378Z,4.87
2018-07-05T08:01:09.084Z,4.70
2018-07-05T08:02:11.335Z,5.67
2018-07-05T08:03:13.580Z,4.83
2018-07-05T08:04:15.939Z,5.60
2018-07-05T08:05:18.213Z,5.00
2018-07-05T08:06:20.469Z,7.30
2018-07-05T08:07:22.720Z,4.83
2018-07-05T08:08:24.995Z,5.20
2018-07-05T08:09:27.441Z,5.43
2018-07-05T08:10:29.749Z,6.07
2018-07-05T08:11:32.033Z,6.10
2018-07-05T08:12:34.266Z,6.07
2018-07-05T08:13:36.509Z,5.90
2018-07-05T08:14:38.749Z,5.77
2018-07-05T08:15:41.010Z,5.17
2018-07-05T08:16:43.256Z,4.77
2018-07-05T08:17:45.509Z,4.97
2018-07-05T08:18:47.741Z,5.40
2018-07-05T08:19:49.972Z,4.60
2018-07-05T08:20:52.284Z,4.97
2018-07-05T08:21:54.538Z,5.50
2018-07-05T08:22:56.806Z,5.80
2018-07-05T08:23:59.029Z,5.10
2018-07-05T08:25:01.309Z,4.50
2018-07-05T08:26:03.544Z,5.83
2018-07-05T08:27:05.822Z,5.70
2018-07-05T08:28:08.968Z,5.90
2018-07-05T08:29:11.217Z,5.40
2018-07-05T08:30:13.465Z,5.97
2018-07-05T08:31:15.742Z,6.07
2018-07-05T08:32:18.176Z,5.37
2018-07-05T08:33:20.408Z,5.77
2018-07-05T08:34:22.636Z,6.17
2018-07-05T08:35:24.950Z,5.23
2018-07-05T08:36:27.192Z,5.50
2018-07-05T08:37:29.469Z,4.93
2018-07-05T08:38:31.786Z,6.10
2018-07-05T08:39:34.065Z,5.30
2018-07-05T08:40:36.302Z,7.00
2018-07-05T08:41:38.638Z,5.10
2018-07-05T08:42:40.982Z,5.50
2018-07-05T08:43:43.224Z,5.13
2018-07-05T08:44:45.520Z,5.07
2018-07-05T08:45:47.781Z,5.10
2018-07-05T08:46:50.120Z,5.73
2018-07-05T08:47:52.369Z,4.87
2018-07-05T08:48:54.629Z,5.67
2018-07-05T08:49:56.903Z,4.90
2018-07-05T08:50:59.147Z,5.30
2018-07-05T08:52:01.414Z,4.33
2018-07-05T08:53:03.780Z,3.70
2018-07-05T08:54:06.000Z,4.50
2018-07-05T08:55:08.489Z,4.40
2018-07-05T08:56:10.704Z,5.70
2018-07-05T08:57:13.049Z,4.73
2018-07-05T08:58:15.319Z,5.37
2018-07-05T08:59:17.525Z,5.27
2018-07-05T09:00:19.790Z,5.00
2018-07-05T09:01:22.077Z,5.60
2018-07-05T09:02:24.351Z,4.43
2018-07-05T09:03:26.617Z,4.43
2018-07-05T09:04:28.894Z,4.57
2018-07-05T09:05:31.188Z,4.97
2018-07-05T09:06:33.443Z,4.57
2018-07-05T09:07:35.690Z,4.30
2018-07-05T09:08:37.923Z,5.97
2018-07-05T09:09:40.198Z,4.90
2018-07-05T09:10:42.526Z,4.57
2018-07-05T09:11:44.816Z,4.97
2018-07-05T09:12:47.384Z,5.00
2018-07-05T09:13:49.773Z,4.20
2018-07-05T09:14:52.044Z,4.10
2018-07-05T09:15:54.406Z,4.70
2018-07-05T09:16:56.646Z,4.57
2018-07-05T09:17:59.074Z,4.40
2018-07-05T09:19:01.290Z,4.50
2018-07-05T09:20:03.516Z,5.70
2018-07-05T09:21:05.754Z,4.50
2018-07-05T09:22:08.031Z,4.80
2018-07-05T09:23:10.342Z,3.90
2018-07-05T09:24:12.589Z,4.10
2018-07-05T09:25:14.932Z,4.87
2018-07-05T09:26:17.314Z,3.67
2018-07-05T09:27:19.596Z,4.30
2018-07-05T09:28:21.921Z,4.07
2018-07-05T09:29:24.156Z,4.00
2018-07-05T09:30:26.472Z,4.10
2018-07-05T09:31:28.946Z,4.60
2018-07-05T09:32:31.188Z,4.37
2018-07-05T09:33:33.445Z,5.77
2018-07-05T09:34:35.692Z,3.93
2018-07-05T09:35:37.925Z,4.50
2018-07-05T09:36:40.204Z,5.50
2018-07-05T09:37:42.485Z,3.80
2018-07-05T09:38:44.733Z,4.00
2018-07-05T09:39:46.997Z,4.73
2018-07-05T09:40:49.232Z,4.97
2018-07-05T09:41:51.579Z,4.07
2018-07-05T09:42:53.843Z,4.50
2018-07-05T09:43:56.112Z,4.20
2018-07-05T09:44:58.367Z,4.33
2018-07-05T09:46:00.634Z,4.30
2018-07-05T09:47:03.162Z,4.23
2018-07-05T09:48:05.368Z,4.73
2018-07-05T09:49:07.603Z,3.90
2018-07-05T09:50:10.136Z,4.10
2018-07-05T09:51:12.493Z,4.00
2018-07-05T09:52:14.792Z,4.60
2018-07-05T09:53:17.105Z,5.53
2018-07-05T09:54:19.349Z,5.27
2018-07-05T09:55:21.632Z,4.80
2018-07-05T09:56:23.904Z,4.90
2018-07-05T09:57:26.173Z,4.13
2018-07-05T09:58:28.419Z,4.53
2018-07-05T09:59:30.657Z,5.83
2018-07-05T10:00:38.544Z,4.23
2018-07-05T10:01:40.783Z,4.73
2018-07-05T10:02:43.044Z,4.00
2018-07-05T10:03:45.485Z,3.90
2018-07-05T10:04:48.038Z,4.40
2018-07-05T10:05:50.416Z,4.10
2018-07-05T10:06:52.670Z,4.70
2018-07-05T10:07:55.105Z,4.20
2018-07-05T10:08:57.417Z,4.80
2018-07-05T10:09:59.652Z,4.33
2018-07-05T10:11:01.916Z,4.30
2018-07-05T10:12:04.165Z,5.53
2018-07-05T10:13:06.474Z,4.30
2018-07-05T10:14:08.695Z,3.40
2018-07-05T10:15:10.987Z,3.73
2018-07-05T10:16:13.344Z,3.90
2018-07-05T10:17:15.593Z,3.90
2018-07-05T10:18:17.828Z,4.07
2018-07-05T10:19:20.365Z,4.03
2018-07-05T10:20:22.672Z,4.57
2018-07-05T10:21:24.944Z,4.10
2018-07-05T10:22:27.295Z,3.53
2018-07-05T10:23:29.563Z,4.10
2018-07-05T10:24:31.825Z,3.70
2018-07-05T10:25:34.068Z,3.83
2018-07-05T10:26:36.325Z,3.83
2018-07-05T10:27:38.575Z,3.63
2018-07-05T10:28:53.340Z,3.40
2018-07-05T10:30:07.957Z,4.07
2018-07-05T10:31:22.693Z,3.13
2018-07-05T10:32:37.400Z,3.83
2018-07-05T10:33:47.669Z,3.70
2018-07-05T10:34:49.944Z,3.20
2018-07-05T10:35:52.217Z,3.40
2018-07-05T10:36:54.449Z,3.80
2018-07-05T10:37:58.270Z,3.37
2018-07-05T10:39:00.603Z,3.90
2018-07-05T10:40:15.253Z,4.20
2018-07-05T10:41:30.189Z,3.23
2018-07-05T10:42:44.909Z,3.40
2018-07-05T10:43:59.624Z,3.80
2018-07-05T10:45:15.176Z,3.23
2018-07-05T10:46:29.936Z,3.63
2018-07-05T10:47:44.586Z,3.50
2018-07-05T10:48:59.426Z,3.30
2018-07-05T10:50:14.288Z,3.60
2018-07-05T10:51:29.053Z,2.77
2018-07-05T10:52:43.777Z,3.40
2018-07-05T10:53:58.717Z,3.43
2018-07-05T10:55:13.456Z,2.90
2018-07-05T10:56:28.237Z,3.03
2018-07-05T10:57:42.653Z,3.50
2018-07-05T10:58:57.459Z,3.13
2018-07-05T11:00:12.223Z,3.40
2018-07-05T11:01:27.284Z,3.43
2018-07-05T11:02:41.864Z,3.57
2018-07-05T11:03:50.781Z,3.50
2018-07-05T11:05:05.392Z,3.50
2018-07-05T11:06:20.032Z,3.47
2018-07-05T11:07:34.834Z,2.80
2018-07-05T11:08:49.647Z,2.80
2018-07-05T11:10:04.427Z,3.10
2018-07-05T11:11:19.021Z,3.47
2018-07-05T11:12:33.906Z,3.50
2018-07-05T11:13:48.661Z,3.53
2018-07-05T11:15:03.342Z,3.23
2018-07-05T11:16:18.021Z,3.77
2018-07-05T11:17:32.712Z,3.83
2018-07-05T11:18:47.557Z,2.83
2018-07-05T11:20:02.287Z,2.93
2018-07-05T11:21:16.983Z,3.10
2018-07-05T11:22:31.840Z,3.90
2018-07-05T11:23:46.472Z,3.43
2018-07-05T11:25:01.339Z,3.43
2018-07-05T11:26:16.054Z,3.60
2018-07-05T11:27:30.537Z,3.27
2018-07-05T11:28:45.117Z,3.15
2018-07-05T11:29:59.809Z,3.20
2018-07-05T11:31:14.337Z,3.60
2018-07-05T11:32:29.813Z,3.60
2018-07-05T11:33:44.317Z,3.63
2018-07-05T11:34:59.152Z,3.00
2018-07-05T11:36:13.779Z,3.40
2018-07-05T11:37:28.542Z,3.13
2018-07-05T11:38:43.071Z,3.60
2018-07-05T11:39:57.770Z,3.53
2018-07-05T11:41:12.498Z,4.10
2018-07-05T11:42:27.266Z,4.07
2018-07-05T11:43:42.106Z,3.60
2018-07-05T11:44:57.006Z,3.73
2018-07-05T11:46:11.657Z,3.10
2018-07-05T11:47:26.422Z,3.40
2018-07-05T11:48:41.282Z,4.60
2018-07-05T11:49:55.914Z,3.70
2018-07-05T11:51:10.677Z,3.50
2018-07-05T11:52:25.368Z,3.60
2018-07-05T11:53:40.073Z,4.00
2018-07-05T11:54:54.893Z,4.50
2018-07-05T11:56:09.420Z,4.00
2018-07-05T11:57:24.126Z,4.10
2018-07-05T11:58:38.904Z,3.40
2018-07-05T11:59:53.580Z,3.80
2018-07-05T12:01:08.329Z,3.90
2018-07-05T12:02:23.087Z,4.03
2018-07-05T12:03:37.903Z,4.00
2018-07-05T12:04:52.582Z,4.67
2018-07-05T12:06:07.410Z,4.30
2018-07-05T12:07:22.089Z,4.57
2018-07-05T12:08:36.685Z,3.30
2018-07-05T12:09:51.497Z,4.10
2018-07-05T12:11:06.165Z,3.00
2018-07-05T12:12:21.068Z,3.97
2018-07-05T12:13:35.634Z,4.23
2018-07-05T12:14:50.541Z,4.33
2018-07-05T12:15:58.993Z,4.53
2018-07-05T12:17:13.855Z,5.00
2018-07-05T12:18:28.417Z,3.80
2018-07-05T12:19:43.153Z,3.73
2018-07-05T12:20:57.799Z,3.90
2018-07-05T12:22:12.295Z,4.30
2018-07-05T12:23:26.899Z,3.53
2018-07-05T12:24:41.621Z,3.83
2018-07-05T12:25:56.480Z,4.57
2018-07-05T12:27:11.297Z,4.67
2018-07-05T12:28:26.067Z,4.90
2018-07-05T12:29:40.763Z,5.37
2018-07-05T12:30:55.540Z,4.83
2018-07-05T12:32:10.070Z,3.80
2018-07-05T12:33:24.829Z,4.70
2018-07-05T12:34:39.556Z,3.83
2018-07-05T12:35:54.444Z,4.23
2018-07-05T12:37:09.145Z,4.50
2018-07-05T12:38:23.930Z,3.97
2018-07-05T12:39:38.446Z,4.47
2018-07-05T12:40:53.283Z,5.00
2018-07-05T12:42:07.982Z,4.43
2018-07-05T12:43:22.811Z,4.33
2018-07-05T12:44:37.427Z,4.40
2018-07-05T12:45:51.943Z,5.87
2018-07-05T12:47:06.620Z,4.70
2018-07-05T12:48:21.265Z,4.20
2018-07-05T12:49:35.968Z,4.97
2018-07-05T12:50:50.755Z,5.93
2018-07-05T12:52:05.469Z,5.67
2018-07-05T12:53:20.012Z,5.00
2018-07-05T12:54:34.796Z,4.57
2018-07-05T12:55:49.732Z,5.30
2018-07-05T12:57:04.517Z,4.97
2018-07-05T12:58:19.274Z,4.63
2018-07-05T12:59:33.949Z,4.80
2018-07-05T13:00:48.627Z,4.77
2018-07-05T13:02:03.213Z,4.93
2018-07-05T13:03:17.876Z,6.37
2018-07-05T13:04:32.697Z,5.60
2018-07-05T13:05:47.556Z,4.90
2018-07-05T13:07:02.319Z,4.60
2018-07-05T13:08:17.160Z,3.70
2018-07-05T13:09:32.020Z,5.40
2018-07-05T13:10:46.950Z,4.57
2018-07-05T13:12:01.460Z,5.00
2018-07-05T13:13:16.012Z,5.43
2018-07-05T13:14:30.717Z,5.83
2018-07-05T13:15:45.370Z,5.00
2018-07-05T13:17:00.248Z,3.93
2018-07-05T13:18:15.007Z,4.57
2018-07-05T13:19:29.750Z,4.80
2018-07-05T13:20:44.484Z,5.00
2018-07-05T13:21:59.240Z,3.53
2018-07-05T13:23:13.785Z,5.10
2018-07-05T13:24:28.537Z,4.73
2018-07-05T13:25:43.176Z,4.13
2018-07-05T13:26:58.081Z,4.23
2018-07-05T13:28:12.819Z,5.50
2018-07-05T13:29:27.570Z,4.93
2018-07-05T13:30:42.483Z,4.77
2018-07-05T13:31:57.099Z,5.60
2018-07-05T13:33:12.059Z,5.33
2018-07-05T13:34:26.623Z,4.63
2018-07-05T13:35:41.297Z,5.70
2018-07-05T13:36:56.186Z,4.60
2018-07-05T13:38:11.033Z,4.83
2018-07-05T13:39:25.852Z,4.63
2018-07-05T13:40:40.490Z,4.33
2018-07-05T13:41:55.316Z,4.87
2018-07-05T13:43:09.916Z,5.30
2018-07-05T13:44:24.637Z,4.47
2018-07-05T13:45:39.329Z,4.63
2018-07-05T13:46:54.068Z,4.30
2018-07-05T13:48:08.856Z,4.80
2018-07-05T13:49:23.477Z,4.70
2018-07-05T13:50:38.313Z,4.60
2018-07-05T13:51:53.069Z,4.80
2018-07-05T13:53:07.842Z,4.43
2018-07-05T13:54:22.596Z,5.20
2018-07-05T13:55:37.168Z,7.30
2018-07-05T13:56:51.884Z,5.57
2018-07-05T13:58:06.533Z,5.00
2018-07-05T13:59:21.398Z,4.90
2018-07-05T14:00:36.237Z,4.57
2018-07-05T14:01:50.914Z,5.03
2018-07-05T14:03:05.443Z,6.00
2018-07-05T14:04:20.145Z,5.17
2018-07-05T14:05:34.922Z,4.93
2018-07-05T14:06:49.786Z,4.60
2018-07-05T14:08:04.560Z,5.17
2018-07-05T14:09:19.317Z,5.43
2018-07-05T14:10:34.074Z,5.07
2018-07-05T14:11:48.690Z,4.27
2018-07-05T14:13:03.556Z,5.30
2018-07-05T14:14:18.266Z,4.70
2018-07-05T14:15:32.980Z,6.13
2018-07-05T14:16:47.755Z,4.53
2018-07-05T14:18:02.606Z,4.53
2018-07-05T14:19:17.447Z,4.93
2018-07-05T14:20:32.148Z,5.43
2018-07-05T14:21:46.814Z,4.40
2018-07-05T14:23:01.653Z,4.40
2018-07-05T14:24:16.256Z,4.57
2018-07-05T14:25:30.976Z,4.47
2018-07-05T14:26:45.746Z,5.33
2018-07-05T14:28:00.479Z,4.87
2018-07-05T14:29:15.095Z,5.07
2018-07-05T14:30:29.648Z,4.20
2018-07-05T14:31:44.494Z,5.13
2018-07-05T14:32:59.135Z,5.13
2018-07-05T14:34:13.751Z,5.17
2018-07-05T14:35:28.497Z,4.47
2018-07-05T14:36:43.462Z,5.40
2018-07-05T14:37:57.987Z,5.10
2018-07-05T14:39:12.640Z,5.20
2018-07-05T14:40:27.876Z,3.73
2018-07-05T14:41:42.542Z,5.47
2018-07-05T14:42:57.029Z,4.60
2018-07-05T14:44:11.860Z,3.97
2018-07-05T14:45:26.997Z,4.30
2018-07-05T14:46:41.652Z,4.30
2018-07-05T14:47:56.391Z,4.50
2018-07-05T14:49:11.152Z,4.37
2018-07-05T14:50:25.932Z,4.70
2018-07-05T14:51:40.794Z,4.83
2018-07-05T14:52:55.583Z,4.37
2018-07-05T14:54:04.237Z,4.67
2018-07-05T14:55:19.100Z,5.50
2018-07-05T14:56:33.931Z,4.60
2018-07-05T14:57:48.768Z,4.57
2018-07-05T14:59:03.545Z,4.63
2018-07-05T15:00:18.517Z,4.10
2018-07-05T15:01:33.554Z,4.47
2018-07-05T15:02:48.432Z,4.10
2018-07-05T15:04:03.318Z,4.10
2018-07-05T15:05:18.598Z,4.20
2018-07-05T15:06:33.849Z,4.47
2018-07-05T15:07:48.878Z,3.70
2018-07-05T15:09:04.717Z,4.20
2018-07-05T15:10:19.718Z,3.80
2018-07-05T15:11:34.963Z,4.47
2018-07-05T15:12:49.724Z,5.40
2018-07-05T15:14:04.240Z,5.10
2018-07-05T15:15:19.044Z,4.20
2018-07-05T15:16:33.778Z,4.10
2018-07-05T15:17:48.497Z,3.80
2018-07-05T15:19:03.141Z,4.03
2018-07-05T15:20:18.106Z,3.83
2018-07-05T15:21:32.751Z,3.60
2018-07-05T15:22:47.489Z,4.10
2018-07-05T15:24:02.570Z,3.10
2018-07-05T15:25:17.485Z,3.47
2018-07-05T15:26:32.053Z,3.67
2018-07-05T15:27:47.037Z,3.17
2018-07-05T15:29:01.625Z,4.33
2018-07-05T15:30:16.783Z,3.40
2018-07-05T15:31:31.374Z,3.27
2018-07-05T15:32:46.103Z,3.87
2018-07-05T15:34:00.740Z,2.93
2018-07-05T15:35:15.528Z,3.50
2018-07-05T15:36:30.241Z,4.33
2018-07-05T15:37:45.083Z,3.80
2018-07-05T15:38:59.986Z,4.03
2018-07-05T15:40:08.648Z,3.80
2018-07-05T15:41:23.372Z,3.50
2018-07-05T15:42:38.162Z,4.27
2018-07-05T15:43:52.874Z,4.27
2018-07-05T15:45:07.481Z,3.70
2018-07-05T15:46:22.148Z,5.47
2018-07-05T15:47:36.957Z,3.70
2018-07-05T15:48:51.773Z,4.73
2018-07-05T15:50:06.474Z,3.70
2018-07-05T15:51:21.313Z,4.22
2018-07-05T15:52:35.962Z,4.30
2018-07-05T15:53:50.783Z,4.67
2018-07-05T15:55:05.361Z,4.20
2018-07-05T15:56:20.124Z,4.63
2018-07-05T15:57:34.789Z,3.98
2018-07-05T15:58:49.685Z,3.60
2018-07-05T16:00:04.476Z,4.30